Time;durP1;ratioP1;P1;durP2;ratioP2;P2;SDS_P1;SDS_P2;PMS_P1;PMS_P2;Temp;Humidity;BMP_temperature;BMP_pressure;BME280_temperature;BME280_humidity;BME280_pressure;Samples;Min_cycle;Max_cycle;Signal;HPM_P1;HPM_P2
2021/06/25 00:02:59;;;;;;;13.78;6.20;;;;;;;20.04;81.28;98411.17;2282175;78;21394;-79
2021/06/25 00:06:00;;;;;;;10.75;5.47;;;;;;;20.59;82.49;98443.79;2282294;78;20958;-80
2021/06/25 00:09:00;;;;;;;13.30;5.40;;;;;;;21.03;81.31;98474.54;2282442;78;21306;-80
2021/06/25 00:12:01;;;;;;;7.28;5.72;;;;;;;21.22;81.00;98516.31;2281903;77;20954;-79
2021/06/25 00:15:02;;;;;;;12.95;6.10;;;;;;;20.92;78.96;98545.23;2282163;78;20902;-80
2021/06/25 00:18:03;;;;;;;11.18;5.80;;;;;;;21.19;78.77;98601.78;2282568;77;20966;-81
2021/06/25 00:21:04;;;;;;;12.43;5.20;;;;;;;21.35;77.68;98666.73;2282624;77;20973;-81
2021/06/25 00:24:05;;;;;;;7.87;5.28;;;;;;;21.36;77.50;98643.25;2282762;78;20879;-80
2021/06/25 00:27:07;;;;;;;11.20;5.50;;;;;;;21.23;76.25;98644.59;2282288;78;20974;-80
2021/06/25 00:30:08;;;;;;;12.37;5.58;;;;;;;21.03;78.56;98670.90;2282700;77;20978;-79
2021/06/25 00:33:09;;;;;;;10.93;6.20;;;;;;;21.14;77.52;98682.89;2282473;78;20954;-80
2021/06/25 00:36:10;;;;;;;13.83;6.12;;;;;;;21.01;78.65;98679.37;2282733;77;20970;-80
2021/06/25 00:39:11;;;;;;;10.20;5.45;;;;;;;21.11;79.55;98698.05;2282494;77;21005;-80
2021/06/25 00:42:12;;;;;;;11.10;6.33;;;;;;;20.86;79.67;98689.56;2282610;77;20962;-82
2021/06/25 00:45:13;;;;;;;10.25;6.45;;;;;;;21.19;80.19;98700.86;2282760;77;20875;-81
2021/06/25 00:48:14;;;;;;;8.20;5.83;;;;;;;21.42;79.50;98703.23;2282764;78;20926;-80
2021/06/25 00:51:15;;;;;;;10.20;6.47;;;;;;;21.55;79.21;98714.71;2282661;78;21030;-80
2021/06/25 00:54:16;;;;;;;12.78;6.33;;;;;;;21.63;76.52;98729.05;2282494;78;20998;-79
2021/06/25 00:57:17;;;;;;;9.68;6.60;;;;;;;21.92;74.30;98745.33;2282468;77;20956;-81
2021/06/25 01:00:18;;;;;;;12.65;6.28;;;;;;;22.08;72.78;98767.81;2282586;78;20962;-81
2021/06/25 01:03:19;;;;;;;10.48;6.33;;;;;;;22.08;72.62;98774.46;2282634;78;20966;-80
2021/06/25 01:06:20;;;;;;;10.98;5.95;;;;;;;21.92;72.45;98785.20;2282602;78;20958;-81
2021/06/25 01:09:21;;;;;;;6.90;6.12;;;;;;;21.88;72.70;98792.86;2282165;77;20989;-79
2021/06/25 01:12:22;;;;;;;9.95;6.40;;;;;;;22.03;72.16;98796.81;2251614;77;20917;-81
2021/06/25 01:15:23;;;;;;;15.58;6.83;;;;;;;22.10;71.74;98797.87;2250021;79;20936;-79
2021/06/25 01:18:24;;;;;;;10.53;6.35;;;;;;;22.10;71.76;98796.54;2249891;79;20944;-78
2021/06/25 01:21:24;;;;;;;10.25;6.45;;;;;;;22.17;71.76;98774.59;2249393;79;20987;-80
2021/06/25 01:24:25;;;;;;;13.62;6.85;;;;;;;22.30;71.60;98773.69;2250438;79;20889;-79
2021/06/25 01:27:26;;;;;;;9.63;6.75;;;;;;;22.41;71.29;98809.59;2249979;79;20944;-81
2021/06/25 01:30:27;;;;;;;18.50;6.60;;;;;;;22.48;70.61;98822.20;2249941;79;20952;-80
2021/06/25 01:33:29;;;;;;;10.63;6.55;;;;;;;22.32;70.44;98778.02;2249732;79;20920;-79
2021/06/25 01:36:30;;;;;;;12.88;7.00;;;;;;;22.12;70.82;98767.25;2250400;79;21000;-81
2021/06/25 01:39:31;;;;;;;8.93;6.55;;;;;;;22.08;70.92;98769.14;2249810;79;20996;-79
2021/06/25 01:42:32;;;;;;;10.38;5.80;;;;;;;21.92;70.26;98776.76;2250026;79;21312;-81
2021/06/25 01:45:33;;;;;;;12.03;7.10;;;;;;;21.52;71.16;98787.84;2250166;79;21268;-80
2021/06/25 01:48:34;;;;;;;20.50;6.60;;;;;;;21.58;72.47;98818.19;2250183;79;20967;-80
2021/06/25 01:51:35;;;;;;;15.43;6.42;;;;;;;21.86;72.71;98822.15;2250351;79;21004;-80
2021/06/25 01:54:36;;;;;;;9.00;6.53;;;;;;;22.13;71.79;98835.44;2250080;79;20968;-78
2021/06/25 01:57:36;;;;;;;20.45;17.85;;;;;;;21.75;70.17;98885.86;2249992;79;20881;-80
2021/06/25 02:00:38;;;;;;;14.65;12.13;;;;;;;20.80;72.04;98909.91;2249867;79;20965;-80
2021/06/25 02:03:39;;;;;;;15.38;8.50;;;;;;;20.63;74.49;98913.03;2249968;79;21352;-79
2021/06/25 02:06:40;;;;;;;10.60;6.45;;;;;;;21.07;74.51;98924.64;2249978;79;20965;-79
2021/06/25 02:09:40;;;;;;;12.53;7.05;;;;;;;21.42;74.21;98903.25;2249673;79;21322;-79
2021/06/25 02:12:42;;;;;;;11.35;6.95;;;;;;;21.63;73.46;98864.52;2249782;77;20921;-80
2021/06/25 02:15:42;;;;;;;13.13;7.17;;;;;;;21.92;72.79;98855.16;2249749;79;21024;-80
2021/06/25 02:18:43;;;;;;;13.85;12.03;;;;;;;21.49;71.09;98871.60;2250101;79;20976;-80
2021/06/25 02:21:44;;;;;;;18.90;12.53;;;;;;;20.75;71.87;98862.74;2250233;79;21007;-79
2021/06/25 02:24:45;;;;;;;12.23;9.10;;;;;;;20.21;73.52;98851.41;2250406;79;20984;-78
2021/06/25 02:27:46;;;;;;;11.33;8.28;;;;;;;20.17;75.17;98864.78;2249972;79;20995;-80
2021/06/25 02:30:47;;;;;;;14.33;7.95;;;;;;;20.17;75.07;98851.08;2250401;79;20917;-80
2021/06/25 02:33:48;;;;;;;12.43;8.20;;;;;;;19.75;75.78;98854.34;2250407;79;20908;-80
2021/06/25 02:36:49;;;;;;;19.82;15.90;;;;;;;19.59;77.72;98921.83;2249864;79;21328;-79
2021/06/25 02:39:50;;;;;;;18.52;15.63;;;;;;;19.72;77.74;98929.45;2250274;79;20983;-80
2021/06/25 02:42:51;;;;;;;19.67;14.45;;;;;;;19.93;78.15;98927.19;2249912;79;20940;-79
2021/06/25 02:45:51;;;;;;;14.78;13.00;;;;;;;20.01;77.48;98926.58;2250412;79;20904;-81
2021/06/25 02:48:52;;;;;;;18.87;16.00;;;;;;;20.31;77.89;98907.69;2250096;79;20955;-78
2021/06/25 02:51:53;;;;;;;20.85;18.23;;;;;;;20.33;76.08;98837.81;2250337;79;20960;-80
2021/06/25 02:54:54;;;;;;;17.52;12.78;;;;;;;19.93;76.87;98756.31;2250468;79;20928;-79
2021/06/25 02:57:55;;;;;;;18.23;15.10;;;;;;;20.34;78.03;98721.59;2250623;79;20868;-81
2021/06/25 03:00:56;;;;;;;17.00;10.38;;;;;;;20.96;77.07;98742.74;2250662;79;20949;-81
2021/06/25 03:03:57;;;;;;;15.15;8.58;;;;;;;21.43;75.35;98729.73;2250707;79;21109;-80
2021/06/25 03:06:58;;;;;;;21.15;10.75;;;;;;;21.42;73.78;98695.27;2250819;79;21004;-81
2021/06/25 03:09:59;;;;;;;13.05;9.28;;;;;;;21.07;72.79;98693.30;2251148;79;20904;-80
2021/06/25 03:13:00;;;;;;;19.00;9.53;;;;;;;20.70;74.15;98710.83;2282408;77;21338;-81
2021/06/25 03:16:01;;;;;;;13.85;10.05;;;;;;;20.63;74.50;98739.77;2282575;78;20906;-79
2021/06/25 03:19:02;;;;;;;13.30;9.38;;;;;;;20.47;75.35;98767.66;2282536;78;21326;-80
2021/06/25 03:22:04;;;;;;;17.25;8.95;;;;;;;20.59;75.54;98782.75;2282697;78;21345;-80
2021/06/25 03:25:05;;;;;;;10.95;7.58;;;;;;;21.00;75.65;98775.35;2282795;77;20923;-79
2021/06/25 03:28:06;;;;;;;14.80;7.72;;;;;;;21.34;75.08;98773.84;2282434;78;20973;-79
2021/06/25 03:31:07;;;;;;;12.18;7.25;;;;;;;21.55;74.10;98765.17;2282723;78;20906;-80
2021/06/25 03:34:08;;;;;;;8.98;6.42;;;;;;;21.76;73.91;98761.41;2282695;77;20989;-80
2021/06/25 03:37:10;;;;;;;11.45;6.47;;;;;;;22.00;73.66;98761.00;2282673;77;21014;-79
2021/06/25 03:40:11;;;;;;;9.40;6.70;;;;;;;21.68;72.03;98738.22;2282830;78;20930;-80
2021/06/25 03:43:13;;;;;;;10.50;6.22;;;;;;;21.68;72.76;98728.47;2282756;77;20887;-79
2021/06/25 03:46:14;;;;;;;9.25;6.25;;;;;;;21.77;72.31;98729.47;2282547;77;20941;-81
2021/06/25 03:49:15;;;;;;;9.45;6.03;;;;;;;21.86;72.04;98726.95;2282238;77;20993;-79
2021/06/25 03:52:16;;;;;;;8.43;5.58;;;;;;;21.90;71.59;98732.56;2282389;77;20930;-80
2021/06/25 03:55:17;;;;;;;9.63;7.60;;;;;;;21.94;71.04;98731.53;2282821;77;20954;-80
2021/06/25 03:58:18;;;;;;;60.73;20.37;;;;;;;22.01;71.09;98734.84;2282582;77;21006;-80
2021/06/25 04:01:19;;;;;;;67.62;21.97;;;;;;;22.14;70.52;98737.02;2282147;78;21124;-80
2021/06/25 04:04:20;;;;;;;79.67;26.15;;;;;;;22.31;70.21;98747.50;2283040;78;20922;-79
2021/06/25 04:07:22;;;;;;;39.98;15.85;;;;;;;22.48;69.51;98754.38;2283221;78;20985;-80
2021/06/25 04:10:23;;;;;;;23.67;10.38;;;;;;;22.13;68.02;98763.20;2283626;78;20993;-80
2021/06/25 04:13:24;;;;;;;15.40;7.55;;;;;;;21.85;69.00;98775.70;2283865;78;20970;-80
2021/06/25 04:16:25;;;;;;;13.25;5.20;;;;;;;21.76;69.74;98785.31;2283183;78;21018;-80
2021/06/25 04:19:26;;;;;;;9.73;4.67;;;;;;;21.32;69.05;98769.05;2282035;78;20899;-79
2021/06/25 04:22:27;;;;;;;13.60;10.72;;;;;;;20.94;69.58;98783.05;2282302;77;21036;-80
2021/06/25 04:25:28;;;;;;;7.35;5.22;;;;;;;20.79;70.68;98782.16;2283120;78;20914;-81
2021/06/25 04:28:29;;;;;;;10.00;5.40;;;;;;;20.56;70.68;98787.28;2281724;77;21022;-79
2021/06/25 04:31:30;;;;;;;8.93;5.05;;;;;;;20.33;71.72;98790.56;2282247;77;20947;-79
2021/06/25 04:34:31;;;;;;;7.15;4.95;;;;;;;20.23;73.03;98796.58;2283159;77;20970;-79
2021/06/25 04:37:33;;;;;;;11.25;5.35;;;;;;;20.75;73.24;98799.08;2282597;77;20966;-79
2021/06/25 04:40:34;;;;;;;7.80;5.20;;;;;;;20.81;72.85;98804.23;2282395;78;21022;-81
2021/06/25 04:43:35;;;;;;;9.68;4.80;;;;;;;21.14;73.23;98795.69;2283012;77;20990;-80
2021/06/25 04:46:36;;;;;;;8.53;5.10;;;;;;;21.12;71.41;98795.33;2282965;78;20926;-80
2021/06/25 04:49:37;;;;;;;7.65;5.00;;;;;;;21.01;71.33;98806.73;2282598;77;20926;-80
2021/06/25 04:52:38;;;;;;;10.80;6.37;;;;;;;21.07;71.85;98814.52;2281548;78;21037;-79
2021/06/25 04:58:45;;;;;;;10.80;6.17;;;;;;;20.73;72.68;98809.33;2260182;78;20973;-82
2021/06/25 05:01:47;;;;;;;9.85;6.87;;;;;;;20.70;73.02;98803.66;2281742;77;20918;-80
2021/06/25 05:04:48;;;;;;;14.03;7.33;;;;;;;21.01;74.12;98807.61;2281557;77;20954;-80
2021/06/25 05:07:49;;;;;;;13.58;7.30;;;;;;;21.43;73.41;98812.05;2281345;78;20907;-80
2021/06/25 05:10:50;;;;;;;14.03;7.25;;;;;;;21.49;72.31;98809.20;2278063;77;20959;-79
2021/06/25 05:13:53;;;;;;;12.50;7.12;;;;;;;21.47;72.35;98795.09;2249485;79;20980;-79
2021/06/25 05:16:54;;;;;;;11.93;7.40;;;;;;;21.32;72.21;98796.05;2249485;79;21391;-78
2021/06/25 05:19:55;;;;;;;14.93;7.03;;;;;;;21.29;72.10;98798.35;2249339;79;21316;-79
2021/06/25 05:22:56;;;;;;;9.10;6.65;;;;;;;21.23;72.08;98803.86;2249928;79;21351;-80
2021/06/25 05:25:58;;;;;;;10.40;6.90;;;;;;;21.43;71.83;98805.41;2249612;79;21363;-80
2021/06/25 05:28:58;;;;;;;11.65;6.92;;;;;;;21.45;71.42;98795.61;2249547;79;20955;-80
2021/06/25 05:32:00;;;;;;;10.35;7.20;;;;;;;21.42;71.59;98786.88;2249963;79;20925;-80
2021/06/25 05:35:01;;;;;;;13.55;7.42;;;;;;;21.29;71.94;98795.23;2249838;79;20962;-79
2021/06/25 05:38:02;;;;;;;11.68;7.53;;;;;;;21.36;73.04;98786.61;2248815;79;20984;-79
2021/06/25 05:41:03;;;;;;;10.05;7.67;;;;;;;21.77;72.16;98786.59;2249092;79;20976;-81
2021/06/25 05:44:05;;;;;;;10.40;7.75;;;;;;;21.94;71.56;98789.99;2249391;79;20967;-81
2021/06/25 05:47:06;;;;;;;10.68;8.25;;;;;;;22.03;70.61;98788.38;2249425;79;20928;-79
2021/06/25 05:50:07;;;;;;;10.65;8.05;;;;;;;22.03;70.54;98776.41;2249494;79;20957;-79
2021/06/25 05:53:08;;;;;;;10.45;8.23;;;;;;;22.38;70.54;98772.48;2249540;79;20990;-80
2021/06/25 05:56:09;;;;;;;12.80;8.78;;;;;;;22.52;70.17;98771.96;2249182;79;20900;-80
2021/06/25 05:59:10;;;;;;;10.32;8.68;;;;;;;22.75;69.31;98776.44;2250051;79;20904;-81
2021/06/25 06:02:11;;;;;;;14.58;10.05;;;;;;;22.65;69.48;98771.94;2250110;79;21048;-81
2021/06/25 06:05:13;;;;;;;11.40;10.15;;;;;;;22.62;69.90;98768.52;2250883;79;20873;-81
2021/06/25 06:08:15;;;;;;;11.80;10.15;;;;;;;22.45;69.16;98767.33;2250208;79;21019;-81
2021/06/25 06:11:16;;;;;;;12.07;10.43;;;;;;;22.43;69.97;98756.34;2250585;77;20924;-85
2021/06/25 06:14:18;;;;;;;12.40;10.28;;;;;;;22.18;70.14;98767.02;2250309;79;21000;-79
2021/06/25 06:17:20;;;;;;;14.38;10.90;;;;;;;22.15;70.30;98772.45;2249796;79;20877;-80
2021/06/25 06:20:23;;;;;;;14.25;10.90;;;;;;;22.24;70.15;98773.45;2250674;79;20971;-81
2021/06/25 06:33:36;;;;;;;12.70;11.38;;;;;;;22.24;70.94;98763.67;2250636;79;20977;-81
2021/06/25 06:36:44;;;;;;;13.83;12.05;;;;;;;22.41;70.11;98767.51;2250294;79;20893;-81
2021/06/25 06:39:45;;;;;;;13.13;11.93;;;;;;;22.49;69.23;98784.05;2249966;79;21296;-80
2021/06/25 06:42:47;;;;;;;13.78;12.50;;;;;;;22.63;69.19;98783.56;2250207;79;20913;-80
2021/06/25 06:45:48;;;;;;;13.38;12.10;;;;;;;22.95;68.91;98791.20;2249769;79;20928;-81
2021/06/25 06:48:49;;;;;;;15.05;12.95;;;;;;;22.92;67.81;98790.45;2250634;79;20916;-80
2021/06/25 06:51:50;;;;;;;18.10;13.05;;;;;;;22.79;68.70;98784.71;2251000;79;20932;-80
2021/06/25 06:54:51;;;;;;;13.53;10.88;;;;;;;22.90;69.21;98782.53;2250854;79;20968;-80
2021/06/25 06:57:52;;;;;;;15.72;12.58;;;;;;;23.27;67.80;98787.27;2250830;79;20908;-80
2021/06/25 07:00:53;;;;;;;15.75;12.28;;;;;;;23.40;66.12;98787.63;2250215;79;20964;-80
2021/06/25 07:03:54;;;;;;;12.13;10.93;;;;;;;23.50;66.51;98785.89;2249931;79;20944;-81
2021/06/25 07:06:56;;;;;;;14.43;11.63;;;;;;;23.64;65.79;98786.68;2250123;79;20961;-80
2021/06/25 07:09:57;;;;;;;12.33;10.68;;;;;;;23.76;65.47;98786.63;2250481;79;20960;-80
2021/06/25 07:12:58;;;;;;;12.55;10.63;;;;;;;23.93;64.84;98789.91;2278214;77;20995;-80
2021/06/25 07:15:59;;;;;;;12.78;11.50;;;;;;;23.78;64.13;98790.96;2292483;78;20952;-81
2021/06/25 07:19:00;;;;;;;12.85;11.65;;;;;;;23.67;64.93;98784.36;2292483;78;21268;-81
2021/06/25 07:22:01;;;;;;;12.53;10.25;;;;;;;23.71;65.47;98792.16;2292637;77;20897;-80
2021/06/25 07:25:02;;;;;;;13.65;11.33;;;;;;;23.55;64.83;98782.20;2299188;77;20902;-80
2021/06/25 07:28:03;;;;;;;20.57;12.13;;;;;;;23.38;64.76;98785.50;2293613;77;20951;-79
2021/06/25 07:31:06;;;;;;;17.65;12.18;;;;;;;23.50;63.75;98783.23;2291792;78;20944;-80
2021/06/25 07:34:07;;;;;;;14.30;12.07;;;;;;;23.92;64.14;98780.18;2292045;78;21313;-79
2021/06/25 07:37:08;;;;;;;14.07;12.70;;;;;;;24.19;61.75;98783.44;2291836;78;20944;-80
2021/06/25 07:40:10;;;;;;;14.35;13.00;;;;;;;24.15;62.22;98782.23;2291395;78;21296;-80
2021/06/25 07:43:12;;;;;;;14.75;13.15;;;;;;;24.40;61.65;98785.21;2291056;78;20956;-80
2021/06/25 07:46:14;;;;;;;14.60;13.10;;;;;;;24.49;61.75;98787.47;2292638;78;20932;-80
2021/06/25 07:49:15;;;;;;;16.05;14.43;;;;;;;24.50;61.57;98786.53;2292746;78;20967;-80
2021/06/25 07:52:16;;;;;;;16.27;14.68;;;;;;;24.28;62.19;98782.63;2292433;78;21050;-80
2021/06/25 07:55:19;;;;;;;19.32;13.70;;;;;;;24.09;62.93;98771.84;2292193;78;21008;-79
2021/06/25 07:58:20;;;;;;;18.45;13.80;;;;;;;24.52;62.03;98769.98;2291727;78;20944;-78
2021/06/25 08:01:22;;;;;;;16.42;13.08;;;;;;;24.99;60.61;98767.78;2291740;78;20873;-80
2021/06/25 08:04:26;;;;;;;15.25;13.28;;;;;;;25.33;57.92;98771.05;2292567;78;20904;-78
2021/06/25 08:07:27;;;;;;;13.85;12.50;;;;;;;25.59;57.72;98766.22;2292400;78;20952;-80
2021/06/25 08:10:28;;;;;;;18.20;13.38;;;;;;;25.88;55.57;98766.11;2292812;78;20968;-80
2021/06/25 08:13:30;;;;;;;15.35;13.72;;;;;;;26.13;56.87;98767.06;2284996;78;21314;-80
2021/06/25 08:16:33;;;;;;;14.50;13.20;;;;;;;26.27;55.67;98764.52;2282614;78;20938;-79
2021/06/25 08:19:34;;;;;;;18.00;14.43;;;;;;;26.05;55.80;98762.59;2282054;78;21010;-80
2021/06/25 08:22:36;;;;;;;15.90;14.40;;;;;;;25.84;55.60;98763.20;2282426;77;21214;-79
2021/06/25 08:25:37;;;;;;;15.03;13.80;;;;;;;25.85;56.11;98766.27;2281985;78;20950;-78
2021/06/25 08:28:38;;;;;;;16.30;14.65;;;;;;;26.06;55.17;98768.33;2281834;78;20978;-80
2021/06/25 08:31:39;;;;;;;16.87;15.38;;;;;;;26.13;55.55;98764.39;2282327;78;20895;-79
2021/06/25 08:34:40;;;;;;;14.85;13.43;;;;;;;26.43;55.24;98761.45;2282216;78;20953;-78
2021/06/25 08:40:44;;;;;;;80.70;19.32;;;;;;;26.40;53.79;98760.28;2262142;78;20959;-79
2021/06/25 08:43:46;;;;;;;16.80;15.10;;;;;;;26.15;54.15;98764.70;2282138;78;21322;-80
2021/06/25 08:46:47;;;;;;;20.35;18.35;;;;;;;26.00;54.57;98756.98;2282860;78;20903;-77
2021/06/25 08:49:48;;;;;;;22.17;19.57;;;;;;;26.18;55.25;98755.65;2282129;78;21546;-78
2021/06/25 08:52:51;;;;;;;23.90;20.40;;;;;;;26.41;55.90;98755.32;2281114;78;21000;-79
2021/06/25 08:55:52;;;;;;;22.43;20.10;;;;;;;26.25;56.43;98765.08;2281732;78;20918;-79
2021/06/25 08:58:53;;;;;;;22.48;20.37;;;;;;;26.17;56.71;98769.50;2282010;78;21370;-78
2021/06/25 09:01:54;;;;;;;24.47;21.45;;;;;;;26.23;56.86;98765.16;2282203;78;21329;-78
2021/06/25 09:04:55;;;;;;;23.95;21.42;;;;;;;26.20;56.55;98769.34;2281365;78;20883;-78
2021/06/25 09:07:56;;;;;;;23.92;21.48;;;;;;;25.81;57.78;98776.25;2281208;78;21715;-78
2021/06/25 09:11:02;;;;;;;25.37;22.67;;;;;;;25.68;57.64;98781.36;2282195;78;21401;-79
2021/06/25 09:14:03;;;;;;;26.73;24.07;;;;;;;25.08;58.50;98787.38;2253786;77;21055;-78
2021/06/25 09:17:06;;;;;;;34.05;25.90;;;;;;;24.82;60.00;98790.84;2249278;79;21002;-80
2021/06/25 09:20:07;;;;;;;30.08;26.37;;;;;;;24.43;60.98;98801.08;2250164;79;20980;-81
2021/06/25 09:23:08;;;;;;;29.87;23.92;;;;;;;24.22;61.30;98782.83;2249738;79;20940;-80
2021/06/25 09:26:10;;;;;;;29.32;25.35;;;;;;;24.34;61.48;98777.02;2250258;79;20977;-80
2021/06/25 09:29:11;;;;;;;27.80;24.30;;;;;;;24.80;60.21;98750.02;2250251;79;20979;-79
2021/06/25 09:32:12;;;;;;;26.95;24.12;;;;;;;24.81;60.83;98761.95;2250186;79;21625;-80
2021/06/25 09:35:14;;;;;;;25.02;22.42;;;;;;;24.58;61.28;98755.02;2249796;79;20967;-79
2021/06/25 09:38:18;;;;;;;28.40;23.60;;;;;;;24.78;61.28;98748.28;2250073;79;21260;-80
2021/06/25 09:41:19;;;;;;;23.42;20.90;;;;;;;25.06;58.43;98751.00;2249992;79;20964;-80
2021/06/25 09:44:21;;;;;;;24.65;21.50;;;;;;;25.04;59.91;98749.73;2250072;79;20968;-79
2021/06/25 09:47:22;;;;;;;24.72;22.07;;;;;;;25.21;59.60;98750.28;2250190;79;20920;-79
2021/06/25 09:50:23;;;;;;;26.33;21.62;;;;;;;25.21;58.75;98759.63;2249969;79;20924;-80
2021/06/25 09:53:25;;;;;;;25.50;20.95;;;;;;;25.01;59.19;98757.03;2250003;79;20999;-79
2021/06/25 09:56:27;;;;;;;22.17;18.95;;;;;;;24.73;60.26;98764.98;2249693;79;20992;-80
2021/06/25 10:02:37;;;;;;;21.90;19.65;;;;;;;24.45;60.18;98765.86;2222033;79;20906;-80
2021/06/25 10:05:39;;;;;;;22.98;19.92;;;;;;;24.31;60.17;98770.48;2249064;79;20972;-79
2021/06/25 10:08:46;;;;;;;20.57;18.20;;;;;;;24.52;60.05;98769.11;2249264;79;20951;-80
2021/06/25 10:11:45;;;;;;;21.93;19.67;;;;;;;24.80;59.55;98772.23;2249039;77;21349;-79
2021/06/25 10:14:47;;;;;;;22.07;19.85;;;;;;;24.85;59.03;98778.22;2291187;78;21666;-79
2021/06/25 10:17:48;;;;;;;20.52;18.32;;;;;;;24.67;58.51;98777.28;2291682;78;21019;-80
2021/06/25 10:20:49;;;;;;;20.60;18.67;;;;;;;24.64;59.26;98778.75;2292117;78;20980;-79
2021/06/25 10:23:50;;;;;;;21.10;18.60;;;;;;;24.70;59.07;98780.27;2291905;78;21043;-80
2021/06/25 10:26:51;;;;;;;22.62;20.23;;;;;;;24.77;59.59;98786.59;2291784;78;20905;-80
2021/06/25 10:29:53;;;;;;;22.93;19.92;;;;;;;24.79;58.74;98786.52;2291772;78;20984;-80
2021/06/25 10:32:53;;;;;;;22.67;20.25;;;;;;;24.73;58.77;98799.68;2291792;78;20896;-80
2021/06/25 10:35:55;;;;;;;23.62;21.02;;;;;;;24.59;58.72;98803.92;2291281;78;20920;-77
2021/06/25 10:38:56;;;;;;;22.37;20.12;;;;;;;24.50;59.66;98803.87;2291861;78;20972;-80
2021/06/25 10:41:58;;;;;;;23.32;20.72;;;;;;;24.27;59.94;98794.66;2292397;78;21027;-80
2021/06/25 10:44:59;;;;;;;26.97;21.33;;;;;;;24.19;60.04;98809.64;2292158;78;20920;-80
2021/06/25 10:48:00;;;;;;;22.93;19.87;;;;;;;24.13;60.35;98798.77;2292145;78;20928;-79
2021/06/25 10:51:01;;;;;;;24.80;19.92;;;;;;;24.08;61.32;98803.91;2292223;78;20963;-80
2021/06/25 10:54:02;;;;;;;24.72;21.20;;;;;;;24.11;61.44;98813.11;2292116;78;21271;-79
2021/06/25 10:57:04;;;;;;;22.82;20.27;;;;;;;24.08;61.14;98816.77;2292143;78;20959;-80
2021/06/25 11:00:07;;;;;;;23.77;21.33;;;;;;;24.13;61.56;98809.44;2291574;78;22283;-80
2021/06/25 11:03:08;;;;;;;27.00;22.17;;;;;;;24.14;61.23;98820.51;2291635;78;20972;-79
2021/06/25 11:06:10;;;;;;;25.08;22.58;;;;;;;24.19;61.25;98814.97;2291690;78;21012;-80
2021/06/25 11:09:12;;;;;;;24.55;21.90;;;;;;;24.14;60.47;98816.51;2291563;78;21063;-80
2021/06/25 11:12:14;;;;;;;28.05;22.70;;;;;;;23.97;61.12;98820.37;2290818;78;21007;-80
2021/06/25 11:15:16;;;;;;;24.85;22.13;;;;;;;23.73;61.59;98834.73;2282207;78;20903;-81
2021/06/25 11:18:17;;;;;;;24.63;22.23;;;;;;;23.57;62.54;98829.63;2282756;78;20954;-79
2021/06/25 11:21:21;;;;;;;24.90;22.37;;;;;;;23.37;63.06;98829.91;2282629;78;20958;-79
2021/06/25 11:24:22;;;;;;;;;;;;;;;23.36;63.73;98831.30;2284449;78;20990;-80
2021/06/25 11:27:23;;;;;;;23.40;20.02;;;;;;;23.20;64.60;98841.70;2281586;78;20370;-79
2021/06/25 11:30:24;;;;;;;27.45;24.65;;;;;;;23.04;65.35;98839.23;2282191;78;21374;-79
2021/06/25 11:33:25;;;;;;;27.07;23.85;;;;;;;22.89;65.77;98843.34;2282277;78;20938;-79
2021/06/25 11:36:26;;;;;;;25.82;23.20;;;;;;;22.86;66.31;98846.12;2281961;78;20958;-79
2021/06/25 11:39:27;;;;;;;22.80;20.37;;;;;;;22.84;65.74;98843.98;2281962;78;20911;-80
2021/06/25 11:42:28;;;;;;;27.90;24.92;;;;;;;22.83;65.71;98847.57;2282340;78;20918;-79
2021/06/25 11:45:30;;;;;;;27.77;25.08;;;;;;;22.81;65.82;98856.94;2281989;78;20995;-79
2021/06/25 11:48:31;;;;;;;31.12;26.75;;;;;;;22.63;65.93;98852.27;2282087;78;21014;-79
2021/06/25 11:51:32;;;;;;;26.87;24.05;;;;;;;22.37;66.89;98854.97;2281985;78;20977;-79
2021/06/25 11:54:35;;;;;;;29.10;25.37;;;;;;;22.34;67.16;98860.40;2282243;78;21073;-79
2021/06/25 11:57:37;;;;;;;25.95;23.27;;;;;;;22.26;67.33;98863.33;2260792;78;20914;-79
2021/06/25 12:00:38;;;;;;;25.35;22.65;;;;;;;22.24;67.64;98862.05;2282083;78;20974;-80
2021/06/25 12:03:39;;;;;;;27.32;24.52;;;;;;;22.44;68.16;98853.83;2282119;78;20887;-80
2021/06/25 12:06:41;;;;;;;27.35;24.63;;;;;;;22.60;67.61;98865.69;2281964;78;20919;-79
2021/06/25 12:09:42;;;;;;;26.77;23.95;;;;;;;22.58;67.16;98856.02;2282240;78;21333;-80
2021/06/25 12:12:44;;;;;;;28.47;25.48;;;;;;;22.63;67.38;98862.05;2275578;78;20956;-80
2021/06/25 12:15:46;;;;;;;29.18;25.72;;;;;;;22.54;67.17;98873.42;2249879;79;20975;-81
2021/06/25 12:18:47;;;;;;;30.35;26.75;;;;;;;22.43;67.89;98875.56;2250246;79;21011;-80
2021/06/25 12:21:48;;;;;;;31.23;27.85;;;;;;;22.31;68.11;98879.13;2249388;79;20963;-80
2021/06/25 12:24:50;;;;;;;31.77;27.67;;;;;;;22.17;67.99;98892.44;2249392;79;20984;-79
2021/06/25 12:27:50;;;;;;;31.52;27.67;;;;;;;22.12;68.25;98888.19;2249601;79;20947;-77
2021/06/25 12:30:52;;;;;;;33.83;27.42;;;;;;;22.00;68.29;98894.77;2248995;79;21331;-80
2021/06/25 12:33:53;;;;;;;36.25;30.23;;;;;;;21.93;69.08;98900.73;2249420;79;21288;-78
2021/06/25 12:36:54;;;;;;;32.48;28.47;;;;;;;21.85;69.45;98909.88;2248924;79;20968;-79
2021/06/25 12:39:55;;;;;;;37.38;30.40;;;;;;;21.84;69.57;98900.17;2249095;79;20904;-79
2021/06/25 12:42:56;;;;;;;35.55;29.40;;;;;;;21.88;69.35;98902.69;2249104;79;20968;-79
2021/06/25 12:45:58;;;;;;;39.67;30.57;;;;;;;21.89;69.34;98905.75;2249141;79;20939;-79
2021/06/25 12:48:59;;;;;;;39.92;31.27;;;;;;;21.92;69.23;98903.45;2249283;79;21020;-79
2021/06/25 12:52:00;;;;;;;36.03;31.07;;;;;;;22.01;68.79;98900.95;2249205;79;21094;-79
2021/06/25 12:55:01;;;;;;;37.48;32.40;;;;;;;22.07;68.65;98908.28;2248255;79;21058;-79
2021/06/25 12:58:03;;;;;;;34.78;30.88;;;;;;;22.17;68.80;98895.09;2249605;79;21336;-79
2021/06/25 13:01:04;;;;;;;38.23;29.67;;;;;;;22.28;68.14;98889.86;2249365;79;21339;-80
2021/06/25 13:04:05;;;;;;;33.63;28.75;;;;;;;22.46;68.02;98878.58;2249467;79;20996;-80
2021/06/25 13:07:07;;;;;;;38.63;29.05;;;;;;;22.75;67.12;98873.56;2249594;79;20992;-79
2021/06/25 13:10:08;;;;;;;35.95;31.23;;;;;;;22.80;66.58;98873.83;2249639;79;20992;-79
2021/06/25 13:13:09;;;;;;;38.73;32.40;;;;;;;22.75;66.24;98872.23;2257211;77;21009;-79
2021/06/25 13:16:10;;;;;;;39.67;32.80;;;;;;;22.74;65.92;98880.68;2281763;78;21005;-79
2021/06/25 13:19:11;;;;;;;44.90;32.98;;;;;;;22.61;65.84;98892.69;2281905;78;20966;-78
2021/06/25 13:22:12;;;;;;;39.38;33.00;;;;;;;22.34;65.91;98885.20;2281077;78;20937;-79
2021/06/25 13:25:13;;;;;;;39.23;31.45;;;;;;;22.22;66.50;98889.62;2281671;78;20982;-79
2021/06/25 13:28:14;;;;;;;38.48;31.73;;;;;;;22.18;66.36;98894.17;2281753;78;20990;-78
2021/06/25 13:31:16;;;;;;;35.63;31.00;;;;;;;22.18;66.57;98897.29;2282258;78;20970;-79
2021/06/25 13:34:16;;;;;;;33.02;29.65;;;;;;;22.32;66.12;98892.36;2281708;78;21282;-78
2021/06/25 13:37:17;;;;;;;33.28;29.67;;;;;;;22.38;65.20;98906.77;2282124;78;20990;-79
2021/06/25 13:40:20;;;;;;;32.58;29.00;;;;;;;22.22;65.53;98905.11;2281818;78;21290;-79
2021/06/25 13:43:21;;;;;;;31.68;28.45;;;;;;;22.29;65.48;98895.13;2282012;78;20986;-78
2021/06/25 13:46:22;;;;;;;32.03;28.62;;;;;;;22.56;64.50;98886.67;2281911;78;20986;-79
2021/06/25 13:49:23;;;;;;;31.85;28.70;;;;;;;22.79;63.79;98884.04;2281186;78;20973;-79
2021/06/25 13:52:24;;;;;;;34.18;28.15;;;;;;;22.97;63.11;98888.30;2282418;78;20910;-79
2021/06/25 13:55:25;;;;;;;31.52;28.27;;;;;;;23.36;62.14;98886.77;2281714;78;20969;-80
2021/06/25 13:58:27;;;;;;;30.45;27.50;;;;;;;23.68;61.67;98890.88;2282270;78;20953;-80
2021/06/25 14:01:28;;;;;;;31.52;28.32;;;;;;;23.42;61.23;98899.88;2281916;78;20981;-79
2021/06/25 14:04:30;;;;;;;29.92;26.65;;;;;;;23.05;62.05;98904.86;2283057;78;20914;-82
2021/06/25 14:07:31;;;;;;;29.27;26.48;;;;;;;22.65;63.14;98910.28;2281748;78;21001;-80
2021/06/25 14:10:32;;;;;;;29.75;26.02;;;;;;;22.28;63.87;98917.78;2281473;78;20906;-80
2021/06/25 14:13:33;;;;;;;28.70;25.97;;;;;;;22.11;64.28;98921.02;2284210;77;21023;-76
2021/06/25 14:16:37;;;;;;;28.57;25.60;;;;;;;21.97;64.80;98921.91;2291033;78;20999;-77
2021/06/25 14:19:38;;;;;;;30.35;27.10;;;;;;;21.79;65.66;98926.02;2291158;78;20897;-79